Lake Park, North Carolina
Current Conditions -  °F | °C
As of 1:53 AM on Thursday 23 Oct 2014 (Local Time) from KEQY Reporting Station
Clear Clear  
Wind Chill: 45°   Ceiling: Unl
Heat Index: 48°   Visibility: 10mi
Dew Point: 39°   Wind: 6mph
Humidity: 71%   Direction: 340°NNW
Pressure: 30.07"   Gusts: NA
Location:  35.0963°N, 80.6145°W
Report Text: KEQY 230553Z AUTO 34005KT 10SM CLR 09/04 A3007 RMK AO2 SLP193 T00890039 10139 20072 58005
Loading
Personal Weather Stations






























Interactive Weather Map
Tropical Storm Tracking
New forecast layout! Learn more

10-Day Weather Forecast

Advertisements
Track Severe Weather on mobile